Ohshima Kazumaru — JD2908 — position and weather

sailwx.info

Track history (hours):
 
Tides and Currents Weather Stations Pressure Air Temp Water Temp Dewpoint Dewpoint Depression Visibility Wind Speed Wind Dir Waves Ship Positions

Ohshima Kazumaru

Last reported at 2018-Jul-21 16:09 UTC. Time now 2018-Jul-22 06:59 UTC.
Position N 33°51' E 135°03'.

Length 69 m; draft 4 m.

Type: Cargo ship. MMSI: 431000925.

Date/timePositionNaut miles runAvg speedWind from/ knotsBaromVisibWave heightAir tempDewpointWater temp
2018-Jul-21 16:09N 33°51' E 135°03'210.6
2018-Jul-21 16:00N 33°52' E 135°02'611.2
2018-Jul-21 15:29N 33°57' E 134°57'1011.9
2018-Jul-21 14:41N 34°04' E 134°49'1211.7
2018-Jul-21 13:39N 34°13' E 134°40'711.5
2018-Jul-21 13:03N 34°17' E 134°33'112.6
2018-Jul-21 12:57N 34°17' E 134°31'512.2
2018-Jul-21 12:30N 34°19' E 134°25'11 0.3
2018-Jul-19 16:21N 34°24' E 134°13'412.9
2018-Jul-19 16:00N 34°23' E 134°18'612.5
2018-Jul-19 15:30N 34°20' E 134°25'712.9
2018-Jul-19 15:00N 34°18' E 134°32'1412.7
2018-Jul-19 13:55N 34°09' E 134°45'512.1
2018-Jul-19 13:30N 34°05' E 134°49'611.9
2018-Jul-19 12:59N 34°01' E 134°54'612.1
2018-Jul-19 12:30N 33°56' E 134°59'612.4
2018-Jul-19 12:01N 33°52' E 135°04'20410.6
2018-Jul-18 16:47N 34°42' E 139°03'2710.8
2018-Jul-18 14:14N 35°00' E 139°28'810.8
2018-Jul-18 13:30N 35°04' E 139°36'611.6
2018-Jul-18 13:00N 35°07' E 139°42'611.8
2018-Jul-18 12:30N 35°12' E 139°46'611.3
2018-Jul-18 12:00N 35°18' E 139°44'611.5
2018-Jul-18 11:30N 35°23' E 139°42'1211.5
2018-Jul-18 10:29N 35°33' E 139°51'511.5
2018-Jul-18 10:00N 35°37' E 139°46'2 0.1
2018-Jul-17 22:09N 35°38' E 139°46'0 2.7
2018-Jul-17 22:00N 35°38' E 139°46'510.2
2018-Jul-17 21:29N 35°34' E 139°50'0 0.1
2018-Jul-17 20:54N 35°34' E 139°50'0 0.0
2018-Jul-17 18:54N 35°34' E 139°50'0 0.0
2018-Jul-17 18:26N 35°34' E 139°50'2 3.5
2018-Jul-17 17:59N 35°33' E 139°51'611.4
2018-Jul-17 17:28N 35°27' E 139°50'612.0
2018-Jul-17 17:00N 35°23' E 139°46'611.1
2018-Jul-17 16:30N 35°18' E 139°45'611.7
2018-Jul-17 16:00N 35°12' E 139°47'612.5
2018-Jul-17 15:30N 35°06' E 139°45'612.4
2018-Jul-17 15:00N 35°01' E 139°40'713.5
2018-Jul-17 14:30N 34°57' E 139°33'23310.9
2018-Jul-16 17:13N 33°51' E 135°03'312.6
2018-Jul-16 17:00N 33°53' E 135°01'612.3
2018-Jul-16 16:29N 33°58' E 134°56'2012.2
2018-Jul-16 14:52N 34°13' E 134°40'610.9
2018-Jul-16 14:19N 34°16' E 134°34'411.8
2018-Jul-16 14:00N 34°18' E 134°30'611.7
2018-Jul-16 13:30N 34°19' E 134°23'9 0.2
2018-Jul-14 15:26N 34°24' E 134°14'512.3
2018-Jul-14 15:00N 34°22' E 134°20'612.2
2018-Jul-14 14:30N 34°20' E 134°27'1312.1
2018-Jul-14 13:28N 34°14' E 134°40'712.8
2018-Jul-14 12:55N 34°09' E 134°45'513.1
2018-Jul-14 12:30N 34°05' E 134°50'612.6
2018-Jul-14 12:00N 33°60' E 134°55'612.2
2018-Jul-14 11:30N 33°55' E 134°59'19510.8
2018-Jul-13 17:24N 34°35' E 138°50'410.3
2018-Jul-13 17:00N 34°36' E 138°55'1110.9
2018-Jul-13 15:59N 34°44' E 139°04'712.5
2018-Jul-13 15:27N 34°49' E 139°09'1010.7
2018-Jul-13 14:31N 34°55' E 139°19'5 9.2
2018-Jul-13 14:00N 34°58' E 139°24'610.8
2018-Jul-13 13:27N 35°01' E 139°30'511.3
2018-Jul-13 13:00N 35°04' E 139°35'612.7
2018-Jul-13 12:30N 35°07' E 139°42'712.7
2018-Jul-13 11:59N 35°12' E 139°46'612.2
2018-Jul-13 11:30N 35°18' E 139°44'612.0
2018-Jul-13 11:00N 35°24' E 139°42'612.1
2018-Jul-13 10:30N 35°28' E 139°47'3 6.8
2018-Jul-13 10:00N 35°32' E 139°47'0 0.0
2018-Jul-13 05:13N 35°32' E 139°47'0 0.0
2018-Jul-13 00:07N 35°32' E 139°47'0 0.0
2018-Jul-12 21:02N 35°32' E 139°47'0 0.0
2018-Jul-12 21:00N 35°32' E 139°47'2 4.6
2018-Jul-12 20:30N 35°31' E 139°50'0 0.1
2018-Jul-12 19:52N 35°31' E 139°50'0 0.0
2018-Jul-12 18:47N 35°31' E 139°50'0 0.0
2018-Jul-12 18:30N 35°31' E 139°50'0 0.0
2018-Jul-12 18:00N 35°31' E 139°50'0 0.0
2018-Jul-12 17:30N 35°31' E 139°50'0 0.0
2018-Jul-12 16:29N 35°31' E 139°50'0 0.0
2018-Jul-12 14:46N 35°31' E 139°50'0 0.0
2018-Jul-12 14:30N 35°31' E 139°50'0 0.0
2018-Jul-12 13:55N 35°31' E 139°50'0 0.0
2018-Jul-12 13:30N 35°31' E 139°50'0 0.0
2018-Jul-12 12:55N 35°31' E 139°50'0 0.0
2018-Jul-12 12:29N 35°31' E 139°50'0 0.1
2018-Jul-12 12:00N 35°31' E 139°50'0 0.1
2018-Jul-12 11:28N 35°31' E 139°50'0 0.0
2018-Jul-12 10:59N 35°31' E 139°50'0 0.0
2018-Jul-12 10:30N 35°31' E 139°50'0 0.0
2018-Jul-12 10:00N 35°31' E 139°50'0 0.0
2018-Jul-12 09:30N 35°31' E 139°50'0 0.0
2018-Jul-12 09:00N 35°31' E 139°50'0 0.0
2018-Jul-12 08:30N 35°31' E 139°50'0 0.0
2018-Jul-12 07:55N 35°31' E 139°50'0 0.0
2018-Jul-12 07:02N 35°31' E 139°50'0 0.2
2018-Jul-12 06:59N 35°31' E 139°50'4 9.0
2018-Jul-12 06:30N 35°27' E 139°48'612.3
2018-Jul-12 06:00N 35°21' E 139°45'611.8
2018-Jul-12 05:30N 35°15' E 139°47'612.3
2018-Jul-12 05:00N 35°09' E 139°46'611.7
2018-Jul-12 04:30N 35°04' E 139°42'612.9
2018-Jul-12 04:00N 34°60' E 139°37'714.3
2018-Jul-12 03:31N 34°55' E 139°30'  
Track history (hours):
 
Tides and Currents Weather Stations Pressure Air Temp Water Temp Dewpoint Dewpoint Depression Visibility Wind Speed Wind Dir Waves Ship Positions

Ohshima Kazumaru

Last reported at 2018-Jul-21 16:09 UTC. Time now 2018-Jul-22 06:59 UTC.
Position N 33°51' E 135°03'.

Length 69 m; draft 4 m.

Type: Cargo ship. MMSI: 431000925.

Date/timePositionNaut miles runAvg speedWind from/ knotsBaromVisibWave heightAir tempDewpointWater temp
2018-Jul-21 16:09N 33°51' E 135°03'210.6
2018-Jul-21 16:00N 33°52' E 135°02'611.2
2018-Jul-21 15:29N 33°57' E 134°57'1011.9
2018-Jul-21 14:41N 34°04' E 134°49'1211.7
2018-Jul-21 13:39N 34°13' E 134°40'711.5
2018-Jul-21 13:03N 34°17' E 134°33'112.6
2018-Jul-21 12:57N 34°17' E 134°31'512.2
2018-Jul-21 12:30N 34°19' E 134°25'11 0.3
2018-Jul-19 16:21N 34°24' E 134°13'412.9
2018-Jul-19 16:00N 34°23' E 134°18'612.5
2018-Jul-19 15:30N 34°20' E 134°25'712.9
2018-Jul-19 15:00N 34°18' E 134°32'1412.7
2018-Jul-19 13:55N 34°09' E 134°45'512.1
2018-Jul-19 13:30N 34°05' E 134°49'611.9
2018-Jul-19 12:59N 34°01' E 134°54'612.1
2018-Jul-19 12:30N 33°56' E 134°59'612.4
2018-Jul-19 12:01N 33°52' E 135°04'20410.6
2018-Jul-18 16:47N 34°42' E 139°03'2710.8
2018-Jul-18 14:14N 35°00' E 139°28'810.8
2018-Jul-18 13:30N 35°04' E 139°36'611.6
2018-Jul-18 13:00N 35°07' E 139°42'611.8
2018-Jul-18 12:30N 35°12' E 139°46'611.3
2018-Jul-18 12:00N 35°18' E 139°44'611.5
2018-Jul-18 11:30N 35°23' E 139°42'1211.5
2018-Jul-18 10:29N 35°33' E 139°51'511.5
2018-Jul-18 10:00N 35°37' E 139°46'2 0.1
2018-Jul-17 22:09N 35°38' E 139°46'0 2.7
2018-Jul-17 22:00N 35°38' E 139°46'510.2
2018-Jul-17 21:29N 35°34' E 139°50'0 0.1
2018-Jul-17 20:54N 35°34' E 139°50'0 0.0
2018-Jul-17 18:54N 35°34' E 139°50'0 0.0
2018-Jul-17 18:26N 35°34' E 139°50'2 3.5
2018-Jul-17 17:59N 35°33' E 139°51'611.4
2018-Jul-17 17:28N 35°27' E 139°50'612.0
2018-Jul-17 17:00N 35°23' E 139°46'611.1
2018-Jul-17 16:30N 35°18' E 139°45'611.7
2018-Jul-17 16:00N 35°12' E 139°47'612.5
2018-Jul-17 15:30N 35°06' E 139°45'612.4
2018-Jul-17 15:00N 35°01' E 139°40'713.5
2018-Jul-17 14:30N 34°57' E 139°33'23310.9
2018-Jul-16 17:13N 33°51' E 135°03'312.6
2018-Jul-16 17:00N 33°53' E 135°01'612.3
2018-Jul-16 16:29N 33°58' E 134°56'2012.2
2018-Jul-16 14:52N 34°13' E 134°40'610.9
2018-Jul-16 14:19N 34°16' E 134°34'411.8
2018-Jul-16 14:00N 34°18' E 134°30'611.7
2018-Jul-16 13:30N 34°19' E 134°23'9 0.2
2018-Jul-14 15:26N 34°24' E 134°14'512.3
2018-Jul-14 15:00N 34°22' E 134°20'612.2
2018-Jul-14 14:30N 34°20' E 134°27'1312.1
2018-Jul-14 13:28N 34°14' E 134°40'712.8
2018-Jul-14 12:55N 34°09' E 134°45'513.1
2018-Jul-14 12:30N 34°05' E 134°50'612.6
2018-Jul-14 12:00N 33°60' E 134°55'612.2
2018-Jul-14 11:30N 33°55' E 134°59'19510.8
2018-Jul-13 17:24N 34°35' E 138°50'410.3
2018-Jul-13 17:00N 34°36' E 138°55'1110.9
2018-Jul-13 15:59N 34°44' E 139°04'712.5
2018-Jul-13 15:27N 34°49' E 139°09'1010.7
2018-Jul-13 14:31N 34°55' E 139°19'5 9.2
2018-Jul-13 14:00N 34°58' E 139°24'610.8
2018-Jul-13 13:27N 35°01' E 139°30'511.3
2018-Jul-13 13:00N 35°04' E 139°35'612.7
2018-Jul-13 12:30N 35°07' E 139°42'712.7
2018-Jul-13 11:59N 35°12' E 139°46'612.2
2018-Jul-13 11:30N 35°18' E 139°44'612.0
2018-Jul-13 11:00N 35°24' E 139°42'612.1
2018-Jul-13 10:30N 35°28' E 139°47'3 6.8
2018-Jul-13 10:00N 35°32' E 139°47'0 0.0
2018-Jul-13 05:13N 35°32' E 139°47'0 0.0
2018-Jul-13 00:07N 35°32' E 139°47'0 0.0
2018-Jul-12 21:02N 35°32' E 139°47'0 0.0
2018-Jul-12 21:00N 35°32' E 139°47'2 4.6
2018-Jul-12 20:30N 35°31' E 139°50'0 0.1
2018-Jul-12 19:52N 35°31' E 139°50'0 0.0
2018-Jul-12 18:47N 35°31' E 139°50'0 0.0
2018-Jul-12 18:30N 35°31' E 139°50'0 0.0
2018-Jul-12 18:00N 35°31' E 139°50'0 0.0
2018-Jul-12 17:30N 35°31' E 139°50'0 0.0
2018-Jul-12 16:29N 35°31' E 139°50'0 0.0
2018-Jul-12 14:46N 35°31' E 139°50'0 0.0
2018-Jul-12 14:30N 35°31' E 139°50'0 0.0
2018-Jul-12 13:55N 35°31' E 139°50'0 0.0
2018-Jul-12 13:30N 35°31' E 139°50'0 0.0
2018-Jul-12 12:55N 35°31' E 139°50'0 0.0
2018-Jul-12 12:29N 35°31' E 139°50'0 0.1
2018-Jul-12 12:00N 35°31' E 139°50'0 0.1
2018-Jul-12 11:28N 35°31' E 139°50'0 0.0
2018-Jul-12 10:59N 35°31' E 139°50'0 0.0
2018-Jul-12 10:30N 35°31' E 139°50'0 0.0
2018-Jul-12 10:00N 35°31' E 139°50'0 0.0
2018-Jul-12 09:30N 35°31' E 139°50'0 0.0
2018-Jul-12 09:00N 35°31' E 139°50'0 0.0
2018-Jul-12 08:30N 35°31' E 139°50'0 0.0
2018-Jul-12 07:55N 35°31' E 139°50'0 0.0
2018-Jul-12 07:02N 35°31' E 139°50'0 0.2
2018-Jul-12 06:59N 35°31' E 139°50'4 9.0
2018-Jul-12 06:30N 35°27' E 139°48'612.3
2018-Jul-12 06:00N 35°21' E 139°45'611.8
2018-Jul-12 05:30N 35°15' E 139°47'612.3
2018-Jul-12 05:00N 35°09' E 139°46'611.7
2018-Jul-12 04:30N 35°04' E 139°42'612.9
2018-Jul-12 04:00N 34°60' E 139°37'714.3
2018-Jul-12 03:31N 34°55' E 139°30'  

Dump ship's entire track history